createdAt,value
2024-02-07T00:02:17.602Z,97152.44
2024-02-07T00:04:44.039Z,97153.25
2024-02-07T00:07:10.498Z,97144.53
2024-02-07T00:09:36.777Z,97155.88
2024-02-07T00:12:02.943Z,97144.53
2024-02-07T00:14:29.118Z,97144.53
2024-02-07T00:16:55.451Z,97139.25
2024-02-07T00:19:21.671Z,97124.41
2024-02-07T00:21:48.213Z,97126.06
2024-02-07T00:24:14.444Z,97128.72
2024-02-07T00:26:40.574Z,97122.56
2024-02-07T00:29:06.786Z,97126.88
2024-02-07T00:31:32.985Z,97136.63
2024-02-07T00:33:59.138Z,97128.72
2024-02-07T00:36:28.064Z,97111.06
2024-02-07T00:38:54.327Z,97112.91
2024-02-07T00:41:20.514Z,97109.41
2024-02-07T00:44:33.817Z,97096.22
2024-02-07T00:47:02.719Z,97097.25
2024-02-07T00:49:28.942Z,97092.97
2024-02-07T00:51:55.168Z,97092.97
2024-02-07T00:54:21.315Z,97092.16
2024-02-07T00:56:47.444Z,97102.72
2024-02-07T00:59:13.768Z,97091.38
2024-02-07T01:01:40.080Z,97088.72
2024-02-07T01:04:06.398Z,97081.81
2024-02-07T01:06:32.682Z,97085.25
2024-02-07T01:08:58.854Z,97075.56
2024-02-07T01:11:27.094Z,97072.91
2024-02-07T01:13:53.333Z,97061.53
2024-02-07T01:16:21.601Z,97063.38
2024-02-07T01:18:47.813Z,97065.00
2024-02-07T01:21:14.173Z,97062.56
2024-02-07T01:23:40.362Z,97050.00
2024-02-07T01:26:06.585Z,97065.00
2024-02-07T01:28:32.853Z,97054.47
2024-02-07T01:30:59.110Z,97061.53
2024-02-07T01:33:25.375Z,97055.25
2024-02-07T01:35:51.600Z,97052.81
2024-02-07T01:38:17.771Z,97037.00
2024-02-07T01:40:44.169Z,97052.81
2024-02-07T01:43:10.534Z,97047.56
2024-02-07T01:45:36.723Z,97045.94
2024-02-07T01:48:04.245Z,97053.84
2024-02-07T01:50:31.804Z,97050.38
2024-02-07T01:52:57.990Z,97059.13
2024-02-07T01:55:24.741Z,97044.13
2024-02-07T01:57:53.358Z,97040.69
2024-02-07T02:00:20.920Z,97036.19
2024-02-07T02:02:56.119Z,97030.13
2024-02-07T02:05:22.385Z,97040.69
2024-02-07T02:07:48.709Z,97023.03
2024-02-07T02:10:15.141Z,97038.84
2024-02-07T02:12:41.357Z,97026.66
2024-02-07T02:15:07.497Z,97030.13
2024-02-07T02:17:33.704Z,97041.47
2024-02-07T02:19:59.993Z,97021.38
2024-02-07T02:22:26.230Z,97024.84
2024-02-07T02:24:52.412Z,97021.38
2024-02-07T02:27:18.628Z,97024.84
2024-02-07T02:32:28.564Z,97024.84
2024-02-07T02:34:54.827Z,97031.13
2024-02-07T02:37:21.058Z,97024.03
2024-02-07T02:39:47.263Z,97016.13
2024-02-07T02:42:13.432Z,97003.97
2024-02-07T02:44:39.662Z,97032.97
2024-02-07T02:47:05.915Z,96998.69
2024-02-07T02:49:32.274Z,97009.25
2024-02-07T02:51:58.562Z,96991.78
2024-02-07T02:54:24.724Z,96999.50
2024-02-07T02:56:50.851Z,97005.81
2024-02-07T02:59:17.002Z,97009.25
2024-02-07T03:01:43.252Z,97006.59
2024-02-07T03:04:09.500Z,97008.22
2024-02-07T03:06:35.777Z,96994.44
2024-02-07T03:09:01.940Z,96999.69
2024-02-07T03:11:28.086Z,97003.97
2024-02-07T03:13:54.252Z,96983.88
2024-02-07T03:16:20.652Z,96978.63
2024-02-07T03:18:47.014Z,96973.34
2024-02-07T03:21:13.200Z,96962.78
2024-02-07T03:23:39.525Z,96945.38
2024-02-07T03:26:05.869Z,96955.91
2024-02-07T03:28:32.132Z,96941.72
2024-02-07T03:30:58.456Z,96926.72
2024-02-07T03:33:24.713Z,96931.16
2024-02-07T03:35:50.894Z,96925.09
2024-02-07T03:38:17.143Z,96946.97
2024-02-07T03:40:43.375Z,96982.88
2024-02-07T03:43:09.604Z,96994.22
2024-02-07T03:45:35.793Z,96987.34
2024-02-07T03:48:02.033Z,97024.84
2024-02-07T03:50:28.203Z,97027.50
2024-02-07T03:52:54.440Z,97073.91
2024-02-07T03:55:20.736Z,97019.16
2024-02-07T03:57:46.973Z,97027.25
2024-02-07T04:00:13.155Z,97025.47
2024-02-07T04:02:39.316Z,97067.44
2024-02-07T04:05:05.635Z,97045.53
2024-02-07T04:07:32.014Z,97058.69
2024-02-07T04:09:58.255Z,97035.81
2024-02-07T04:12:24.530Z,97073.53
2024-02-07T04:14:50.840Z,97102.34
2024-02-07T04:17:17.015Z,97089.16
2024-02-07T04:19:43.243Z,97103.94
2024-02-07T04:22:09.616Z,97093.41
2024-02-07T04:24:35.792Z,97086.53
2024-02-07T04:27:01.938Z,97103.94
2024-02-07T04:29:28.181Z,97105.78
2024-02-07T04:31:54.338Z,97122.41
2024-02-07T04:34:20.571Z,97118.78
2024-02-07T04:36:46.772Z,97124.84
2024-02-07T04:39:12.994Z,97125.88
2024-02-07T04:41:39.140Z,97136.41
2024-02-07T04:44:05.279Z,97144.09
2024-02-07T04:46:31.446Z,97142.50
2024-02-07T04:48:57.695Z,97146.75
2024-02-07T04:51:23.889Z,97135.41
2024-02-07T04:53:50.022Z,97141.69
2024-02-07T04:56:16.344Z,97141.47
2024-02-07T04:58:42.547Z,97155.69
2024-02-07T05:01:08.749Z,97141.69
2024-02-07T05:03:35.007Z,97168.88
2024-02-07T05:06:01.215Z,97164.41
2024-02-07T05:08:27.442Z,97160.97
2024-02-07T05:10:53.600Z,97153.84
2024-02-07T05:13:19.875Z,97167.84
2024-02-07T05:15:46.036Z,97164.41
2024-02-07T05:18:12.248Z,97159.94
2024-02-07T05:20:38.476Z,97165.19
2024-02-07T05:23:04.768Z,97171.31
2024-02-07T05:25:30.961Z,97167.84
2024-02-07T05:27:57.128Z,97179.22
2024-02-07T05:30:23.282Z,97176.56
2024-02-07T05:32:49.533Z,97177.38
2024-02-07T05:35:15.866Z,97182.66
2024-02-07T05:37:42.142Z,97186.28
2024-02-07T05:40:08.325Z,97191.56
2024-02-07T05:42:34.789Z,97186.28
2024-02-07T05:45:00.924Z,97197.66
2024-02-07T05:47:27.200Z,97193.19
2024-02-07T05:49:53.425Z,97200.31
2024-02-07T05:52:19.610Z,97207.38
2024-02-07T05:54:45.810Z,97217.94
2024-02-07T05:57:12.006Z,97212.66
2024-02-07T05:59:38.151Z,97214.69
2024-02-07T06:02:06.504Z,97218.97
2024-02-07T06:04:38.953Z,97225.22
2024-02-07T06:07:05.196Z,97223.44
2024-02-07T06:09:31.381Z,97231.34
2024-02-07T06:11:57.549Z,97226.06
2024-02-07T06:14:23.706Z,97217.31
2024-02-07T06:16:49.982Z,97220.78
2024-02-07T06:19:16.353Z,97220.97
2024-02-07T06:21:42.583Z,97220.78
2024-02-07T06:24:08.744Z,97221.59
2024-02-07T06:26:34.947Z,97220.78
2024-02-07T06:29:01.131Z,97218.97
2024-02-07T06:31:27.594Z,97213.69
2024-02-07T06:33:53.868Z,97221.59
2024-02-07T06:36:20.063Z,97222.41
2024-02-07T06:38:46.220Z,97224.22
2024-02-07T06:41:12.391Z,97224.22
2024-02-07T06:43:38.593Z,97221.59
2024-02-07T06:46:04.752Z,97237.41
2024-02-07T06:48:30.951Z,97238.22
2024-02-07T06:50:57.110Z,97238.22
2024-02-07T06:53:23.259Z,97234.78
2024-02-07T06:55:49.471Z,97244.28
2024-02-07T06:58:15.740Z,97232.94
2024-02-07T07:00:41.986Z,97240.03
2024-02-07T07:03:08.242Z,97243.50
2024-02-07T07:05:34.461Z,97240.03
2024-02-07T07:08:00.746Z,97238.22
2024-02-07T07:10:26.977Z,97249.78
2024-02-07T07:12:53.171Z,97235.78
2024-02-07T07:15:26.518Z,97242.69
2024-02-07T07:17:59.415Z,97248.16
2024-02-07T07:20:25.668Z,97256.88
2024-02-07T07:23:02.952Z,97267.41
2024-02-07T07:25:36.182Z,97275.31
2024-02-07T07:28:02.423Z,97269.25
2024-02-07T07:30:28.600Z,97269.06
2024-02-07T07:32:55.098Z,97266.59
2024-02-07T07:35:21.433Z,97264.78
2024-02-07T07:37:47.675Z,97265.81
2024-02-07T07:40:13.923Z,97272.69
2024-02-07T07:42:40.081Z,97265.59
2024-02-07T07:45:06.230Z,97263.16
2024-02-07T07:47:32.570Z,97255.25
2024-02-07T07:49:58.747Z,97254.41
2024-02-07T07:52:24.990Z,97256.88
2024-02-07T07:54:51.202Z,97263.16
2024-02-07T07:57:17.340Z,97262.31
2024-02-07T07:59:43.479Z,97261.34
2024-02-07T08:02:09.701Z,97271.88
2024-02-07T08:04:35.940Z,97278.13
2024-02-07T08:07:02.172Z,97276.34
2024-02-07T08:09:28.329Z,97276.34
2024-02-07T08:11:54.483Z,97282.44
2024-02-07T08:14:20.609Z,97284.25
2024-02-07T08:16:46.805Z,97279.94
2024-02-07T08:19:13.020Z,97280.97
2024-02-07T08:21:39.271Z,97274.69
2024-02-07T08:24:05.449Z,97277.31
2024-02-07T08:26:31.609Z,97293.13
2024-02-07T08:28:57.880Z,97285.22
2024-02-07T08:31:24.215Z,97286.03
2024-02-07T08:33:50.526Z,97290.69
2024-02-07T08:36:17.148Z,97286.03
2024-02-07T08:38:43.431Z,97271.25
2024-02-07T08:41:09.573Z,97294.16
2024-02-07T08:43:35.735Z,97302.88
2024-02-07T08:46:02.048Z,97299.44
2024-02-07T08:48:28.313Z,97289.69
2024-02-07T08:50:54.529Z,97296.78
2024-02-07T08:53:21.789Z,97293.13
2024-02-07T08:55:48.147Z,97284.63
2024-02-07T08:58:14.330Z,97291.53
2024-02-07T09:00:40.517Z,97287.25
2024-02-07T09:03:06.665Z,97281.97
2024-02-07T09:05:32.882Z,97276.69
2024-02-07T09:07:59.137Z,97288.88
2024-02-07T09:10:25.373Z,97284.63
2024-02-07T09:12:51.612Z,97287.25
2024-02-07T09:15:19.068Z,97285.41
2024-02-07T09:17:45.233Z,97291.72
2024-02-07T09:20:11.495Z,97297.78
2024-02-07T09:22:37.697Z,97300.44
2024-02-07T09:25:03.894Z,97307.53
2024-02-07T09:27:31.673Z,97303.06
2024-02-07T09:30:07.245Z,97318.88
2024-02-07T09:32:37.988Z,97321.53
2024-02-07T09:35:04.456Z,97320.72
2024-02-07T09:37:30.841Z,97339.97
2024-02-07T09:39:56.990Z,97349.72
2024-02-07T09:42:23.346Z,97352.34
2024-02-07T09:44:49.508Z,97339.16
2024-02-07T09:47:15.650Z,97355.00
2024-02-07T09:49:41.886Z,97359.44
2024-02-07T09:52:08.071Z,97366.34
2024-02-07T09:54:36.471Z,97362.91
2024-02-07T09:57:02.650Z,97360.25
2024-02-07T09:59:28.906Z,97358.44
2024-02-07T10:01:55.550Z,97352.34
2024-02-07T10:04:21.846Z,97356.78
2024-02-07T10:06:47.990Z,97344.63
2024-02-07T10:09:14.130Z,97354.16
2024-02-07T10:11:40.399Z,97352.53
2024-02-07T10:14:06.612Z,97352.53
2024-02-07T10:16:32.832Z,97352.53
2024-02-07T10:18:59.026Z,97346.47
2024-02-07T10:21:30.903Z,97351.75
2024-02-07T10:23:57.041Z,97351.53
2024-02-07T10:26:23.249Z,97352.53
2024-02-07T10:28:49.493Z,97346.47
2024-02-07T10:31:15.680Z,97347.28
2024-02-07T10:33:43.970Z,97352.53
2024-02-07T10:36:10.380Z,97355.19
2024-02-07T10:38:36.565Z,97364.69
2024-02-07T10:41:02.808Z,97361.25
2024-02-07T10:43:29.054Z,97360.44
2024-02-07T10:45:55.328Z,97345.63
2024-02-07T10:48:21.599Z,97346.47
2024-02-07T10:50:47.917Z,97355.19
2024-02-07T10:53:14.187Z,97360.44
2024-02-07T10:55:40.891Z,97365.72
2024-02-07T10:58:07.039Z,97368.38
2024-02-07T11:00:33.256Z,97363.09
2024-02-07T11:02:59.481Z,97363.09
2024-02-07T11:05:25.754Z,97350.91
2024-02-07T11:07:52.208Z,97349.91
2024-02-07T11:10:18.627Z,97354.38
2024-02-07T11:12:44.916Z,97357.81
2024-02-07T11:15:11.150Z,97365.72
2024-02-07T11:17:37.341Z,97362.06
2024-02-07T11:20:03.593Z,97339.38
2024-02-07T11:22:29.800Z,97340.34
2024-02-07T11:24:55.969Z,97335.09
2024-02-07T11:27:22.103Z,97346.47
2024-02-07T11:29:48.274Z,97335.91
2024-02-07T11:32:14.426Z,97329.81
2024-02-07T11:34:40.769Z,97348.06
2024-02-07T11:37:10.501Z,97334.09
2024-02-07T11:42:20.072Z,97308.72
2024-02-07T11:44:46.236Z,97299.81
2024-02-07T11:47:12.446Z,97292.91
2024-02-07T11:49:38.828Z,97304.28
2024-02-07T11:52:21.136Z,97319.28
2024-02-07T11:54:49.573Z,97327.00
2024-02-07T11:57:16.307Z,97319.06
2024-02-07T11:59:42.585Z,97322.53
2024-02-07T12:02:11.590Z,97331.44
2024-02-07T12:04:38.586Z,97332.25
2024-02-07T12:07:04.780Z,97327.00
2024-02-07T12:09:32.097Z,97328.00
2024-02-07T12:11:58.304Z,97338.34
2024-02-07T12:14:24.483Z,97334.09
2024-02-07T12:16:50.741Z,97325.16
2024-02-07T12:19:17.039Z,97318.28
2024-02-07T12:21:54.170Z,97344.63
2024-02-07T12:24:20.321Z,97337.53
2024-02-07T12:26:46.487Z,97320.91
2024-02-07T12:29:12.712Z,97310.38
2024-02-07T12:31:38.944Z,97306.69
2024-02-07T12:34:05.188Z,97307.53
2024-02-07T12:36:34.337Z,97304.06
2024-02-07T12:39:00.563Z,97289.28
2024-02-07T12:41:26.764Z,97285.59
2024-02-07T12:43:52.989Z,97294.53
2024-02-07T12:46:19.287Z,97293.53
2024-02-07T12:48:45.669Z,97293.53
2024-02-07T12:51:12.291Z,97290.88
2024-02-07T12:53:38.763Z,97278.34
2024-02-07T12:56:06.235Z,97276.69
2024-02-07T12:58:32.429Z,97267.16
2024-02-07T13:00:58.797Z,97279.34
2024-02-07T13:03:24.973Z,97284.63
2024-02-07T13:05:51.225Z,97295.97
2024-02-07T13:08:17.433Z,97292.53
2024-02-07T13:10:43.605Z,97299.44
2024-02-07T13:13:09.746Z,97304.72
2024-02-07T13:15:35.923Z,97307.53
2024-02-07T13:18:02.121Z,97303.06
2024-02-07T13:20:28.370Z,97298.59
2024-02-07T13:22:54.732Z,97292.53
2024-02-07T13:25:47.217Z,97287.25
2024-02-07T13:28:15.061Z,97293.31
2024-02-07T13:30:41.342Z,97297.78
2024-02-07T13:33:07.514Z,97299.44
2024-02-07T13:35:33.872Z,97299.44
2024-02-07T13:38:00.137Z,97297.78
2024-02-07T13:40:26.369Z,97299.44
2024-02-07T13:42:52.571Z,97299.63
2024-02-07T13:45:18.720Z,97304.72
2024-02-07T13:47:44.969Z,97308.94
2024-02-07T13:50:11.249Z,97308.94
2024-02-07T13:52:37.476Z,97306.31
2024-02-07T13:55:03.645Z,97296.78
2024-02-07T13:57:29.815Z,97288.88
2024-02-07T13:59:56.005Z,97289.69
2024-02-07T14:02:22.344Z,97289.69
2024-02-07T14:04:48.950Z,97289.69
2024-02-07T14:07:15.262Z,97290.50
2024-02-07T14:09:41.497Z,97283.63
2024-02-07T14:12:07.711Z,97287.06
2024-02-07T14:14:33.931Z,97287.88
2024-02-07T14:17:00.141Z,97292.16
2024-02-07T14:19:32.205Z,97292.97
2024-02-07T14:22:00.611Z,97297.44
2024-02-07T14:24:28.320Z,97292.97
2024-02-07T14:26:54.473Z,97285.06
2024-02-07T14:29:20.637Z,97287.50
2024-02-07T14:31:46.842Z,97285.88
2024-02-07T14:34:16.129Z,97272.69
2024-02-07T14:36:42.781Z,97276.97
2024-02-07T14:39:09.043Z,97284.88
2024-02-07T14:41:38.047Z,97273.53
2024-02-07T14:44:04.269Z,97275.13
2024-02-07T14:46:30.565Z,97274.31
2024-02-07T14:48:56.902Z,97263.78
2024-02-07T14:51:23.114Z,97276.16
2024-02-07T14:53:49.312Z,97269.06
2024-02-07T14:56:15.510Z,97276.16
2024-02-07T14:58:41.882Z,97277.75
2024-02-07T15:01:08.198Z,97266.41
2024-02-07T15:03:36.098Z,97266.41
2024-02-07T15:06:02.716Z,97263.78
2024-02-07T15:08:28.901Z,97269.84
2024-02-07T15:10:55.094Z,97269.84
2024-02-07T15:13:21.319Z,97275.94
2024-02-07T15:15:47.503Z,97268.03
2024-02-07T15:18:13.714Z,97275.94
2024-02-07T15:20:39.910Z,97267.03
2024-02-07T15:23:06.124Z,97278.56
2024-02-07T15:25:32.677Z,97269.66
2024-02-07T15:27:59.054Z,97263.59
2024-02-07T15:30:25.254Z,97255.69
2024-02-07T15:32:51.530Z,97254.66
2024-02-07T15:35:17.889Z,97241.47
2024-02-07T15:37:45.946Z,97251.19
2024-02-07T15:40:12.364Z,97233.56
2024-02-07T15:42:38.553Z,97230.91
2024-02-07T15:45:04.753Z,97235.38
2024-02-07T15:47:30.975Z,97230.13
2024-02-07T15:49:57.271Z,97229.13
2024-02-07T15:52:23.600Z,97233.56
2024-02-07T15:54:49.759Z,97227.28
2024-02-07T15:57:15.974Z,97236.19
2024-02-07T15:59:42.202Z,97234.38
2024-02-07T16:02:08.451Z,97232.56
2024-02-07T16:04:34.758Z,97231.75
2024-02-07T16:07:01.582Z,97229.91
2024-02-07T16:09:27.766Z,97225.66
2024-02-07T16:11:53.926Z,97231.75
2024-02-07T16:14:20.101Z,97228.88
2024-02-07T16:16:49.340Z,97221.19
2024-02-07T16:19:15.655Z,97216.72
2024-02-07T16:21:41.887Z,97222.00
2024-02-07T16:24:08.269Z,97233.34
2024-02-07T16:26:36.857Z,97235.00
2024-02-07T16:29:03.143Z,97234.19
2024-02-07T16:31:29.404Z,97231.00
2024-02-07T17:49:06.035Z,97199.63
2024-02-07T17:51:33.237Z,97191.72
2024-02-07T17:53:59.504Z,97197.66
2024-02-07T18:03:42.628Z,97201.28
2024-02-07T18:08:22.621Z,97191.81
2024-02-07T18:10:48.814Z,97193.63
2024-02-07T18:13:14.971Z,97196.47
2024-02-07T18:15:41.236Z,97186.72
2024-02-07T18:18:07.539Z,97190.38
2024-02-07T18:20:33.929Z,97192.00
2024-02-07T18:23:00.278Z,97193.63
2024-02-07T18:25:26.547Z,97190.81
2024-02-07T18:27:52.715Z,97190.41
2024-02-07T18:30:18.883Z,97195.28
2024-02-07T18:32:45.129Z,97185.91
2024-02-07T18:35:11.344Z,97187.16
2024-02-07T18:37:37.650Z,97177.59
2024-02-07T18:40:03.907Z,97180.44
2024-02-07T18:42:39.060Z,97170.91
2024-02-07T18:45:06.319Z,97170.31
2024-02-07T18:47:32.498Z,97169.72
2024-02-07T18:49:58.660Z,97166.22
2024-02-07T18:52:24.882Z,97156.72
2024-02-07T18:54:51.106Z,97165.63
2024-02-07T18:57:18.639Z,97159.56
2024-02-07T18:59:44.945Z,97158.75
2024-02-07T19:02:11.207Z,97160.75
2024-02-07T19:04:37.516Z,97160.75
2024-02-07T19:07:03.959Z,97166.03
2024-02-07T19:09:30.166Z,97166.03
2024-02-07T19:11:56.341Z,97161.78
2024-02-07T19:14:29.969Z,97159.16
2024-02-07T19:16:56.569Z,97153.28
2024-02-07T19:19:23.036Z,97159.34
2024-02-07T19:21:49.332Z,97155.06
2024-02-07T19:24:15.571Z,97162.78
2024-02-07T19:26:41.828Z,97154.25
2024-02-07T19:29:08.091Z,97149.78
2024-02-07T19:31:34.447Z,97142.09
2024-02-07T19:34:00.680Z,97139.47
2024-02-07T19:36:26.925Z,97136.84
2024-02-07T19:38:53.103Z,97128.91
2024-02-07T19:41:19.328Z,97126.28
2024-02-07T19:43:45.665Z,97121.00
2024-02-07T19:46:11.809Z,97112.47
2024-02-07T19:48:37.976Z,97119.16
2024-02-07T19:51:04.639Z,97114.69
2024-02-07T19:53:30.795Z,97113.28
2024-02-07T19:55:56.952Z,97121.00
2024-02-07T19:58:23.197Z,97121.00
2024-02-07T20:00:49.384Z,97129.91
2024-02-07T20:03:15.866Z,97129.72
2024-02-07T20:05:42.175Z,97127.28
2024-02-07T20:08:08.435Z,97128.91
2024-02-07T20:10:34.637Z,97136.00
2024-02-07T20:13:00.872Z,97121.00
2024-02-07T20:15:27.137Z,97117.53
2024-02-07T20:17:53.476Z,97121.00
2024-02-07T20:20:20.491Z,97126.28
2024-02-07T20:22:50.178Z,97124.44
2024-02-07T20:25:16.513Z,97126.28
2024-02-07T20:27:42.669Z,97119.16
2024-02-07T20:30:08.816Z,97119.16
2024-02-07T20:32:35.006Z,97106.78
2024-02-07T20:35:01.417Z,97115.50
2024-02-07T20:37:27.686Z,97112.84
2024-02-07T20:39:53.845Z,97116.31
2024-02-07T20:42:20.015Z,97112.06
2024-02-07T20:44:46.208Z,97108.41
2024-02-07T20:47:12.465Z,97094.38
2024-02-07T20:49:38.780Z,97092.59
2024-02-07T20:52:04.945Z,97080.41
2024-02-07T20:54:31.098Z,97083.03
2024-02-07T20:56:57.274Z,97083.84
2024-02-07T20:59:23.418Z,97083.03
2024-02-07T21:01:49.600Z,97097.03
2024-02-07T21:04:15.813Z,97091.75
2024-02-07T21:06:42.005Z,97092.59
2024-02-07T21:09:08.176Z,97087.31
2024-02-07T21:11:34.413Z,97087.31
2024-02-07T21:14:00.657Z,97077.56
2024-02-07T21:16:26.851Z,97079.41
2024-02-07T21:18:53.068Z,97077.75
2024-02-07T21:21:19.276Z,97066.19
2024-02-07T21:23:46.815Z,97067.81
2024-02-07T21:26:13.065Z,97063.56
2024-02-07T21:28:39.403Z,97060.94
2024-02-07T21:31:05.641Z,97064.56
2024-02-07T21:33:31.906Z,97062.72
2024-02-07T21:35:58.106Z,97066.19
2024-02-07T21:38:24.499Z,97059.88
2024-02-07T21:40:50.783Z,97056.44
2024-02-07T21:43:16.926Z,97053.00
2024-02-07T21:45:43.091Z,97062.53
2024-02-07T21:48:09.320Z,97061.72
2024-02-07T21:50:35.545Z,97056.44
2024-02-07T21:53:01.862Z,97061.72
2024-02-07T21:55:28.141Z,97058.28
2024-02-07T21:57:54.309Z,97054.63
2024-02-07T22:00:20.619Z,97067.81
2024-02-07T22:02:46.792Z,97067.81
2024-02-07T22:05:13.011Z,97071.28
2024-02-07T22:07:39.298Z,97069.44
2024-02-07T22:10:05.576Z,97071.28
2024-02-07T22:12:31.827Z,97074.72
2024-02-07T22:14:59.608Z,97073.09
2024-02-07T22:17:26.153Z,97081.59
2024-02-07T22:19:52.386Z,97080.78
2024-02-07T22:22:21.837Z,97086.88
2024-02-07T22:24:50.499Z,97086.88
2024-02-07T22:27:16.641Z,97095.81
2024-02-07T22:29:42.774Z,97086.88
2024-02-07T22:32:09.094Z,97095.63
2024-02-07T22:34:35.428Z,97097.44
2024-02-07T22:37:01.590Z,97094.00
2024-02-07T22:39:27.764Z,97090.34
2024-02-07T22:41:53.904Z,97088.50
2024-02-07T22:44:20.105Z,97089.50
2024-02-07T22:46:46.497Z,97085.06
2024-02-07T22:49:12.781Z,97077.97
2024-02-07T22:51:39.045Z,97091.16
2024-02-07T22:54:05.218Z,97083.22
2024-02-07T22:56:33.949Z,97077.16
2024-02-07T22:59:00.137Z,97071.88
2024-02-07T23:01:26.428Z,97075.31
2024-02-07T23:03:52.700Z,97081.41
2024-02-07T23:06:18.993Z,97086.47
2024-02-07T23:08:45.232Z,97081.19
2024-02-07T23:11:11.422Z,97080.19
2024-02-07T23:13:37.720Z,97084.88
2024-02-07T23:16:03.923Z,97080.41
2024-02-07T23:18:30.179Z,97086.47
2024-02-07T23:20:56.405Z,97083.84
2024-02-07T23:23:22.572Z,97086.47
2024-02-07T23:25:48.713Z,97086.47
2024-02-07T23:28:14.888Z,97082.22
2024-02-07T23:30:41.072Z,97081.78
2024-02-07T23:33:07.263Z,97074.09
2024-02-07T23:35:33.510Z,97079.34
2024-02-07T23:37:59.720Z,97075.72
2024-02-07T23:40:25.911Z,97075.91
2024-02-07T23:42:52.080Z,97065.38
2024-02-07T23:45:18.277Z,97057.44
2024-02-07T23:47:44.577Z,97054.81
2024-02-07T23:50:10.936Z,97053.81
2024-02-07T23:52:37.435Z,97055.63
2024-02-07T23:55:03.651Z,97046.09
2024-02-07T23:57:29.818Z,97058.25
2024-02-07T23:59:55.998Z,97051.97
